Time;durP1;ratioP1;P1;durP2;ratioP2;P2;SDS_P1;SDS_P2;PMS_P1;PMS_P2;Temp;Humidity;BMP_temperature;BMP_pressure;BME280_temperature;BME280_humidity;BME280_pressure;Samples;Min_cycle;Max_cycle;Signal;HPM_P1;HPM_P2
2023/06/26 00:02:17;;;;;;;9.93;6.72;;;25.80;59.60;;;;;;5052211;28;20065;-64
2023/06/26 00:04:44;;;;;;;9.25;6.95;;;25.80;59.70;;;;;;5051175;28;20067;-64
2023/06/26 00:07:10;;;;;;;10.30;7.22;;;25.80;59.90;;;;;;5053896;28;20029;-64
2023/06/26 00:09:36;;;;;;;9.05;7.18;;;25.70;60.00;;;;;;5051732;28;20021;-64
2023/06/26 00:12:02;;;;;;;11.48;7.28;;;25.70;60.10;;;;;;5051019;28;20085;-64
2023/06/26 00:14:28;;;;;;;9.57;7.18;;;25.70;60.20;;;;;;5051503;28;20479;-64
2023/06/26 00:16:54;;;;;;;9.98;7.43;;;25.60;60.20;;;;;;5053786;28;20020;-64
2023/06/26 00:19:19;;;;;;;9.75;7.25;;;25.60;60.20;;;;;;5051794;28;20029;-64
2023/06/26 00:21:46;;;;;;;9.25;6.80;;;25.60;60.40;;;;;;5052811;28;20071;-64
2023/06/26 00:24:16;;;;;;;10.00;6.78;;;25.50;60.60;;;;;;5028386;28;20033;-64
2023/06/26 00:26:42;;;;;;;8.73;6.47;;;25.50;60.70;;;;;;5052101;28;20035;-64
2023/06/26 00:29:08;;;;;;;10.20;7.45;;;25.50;60.80;;;;;;5051864;28;20339;-64
2023/06/26 00:31:35;;;;;;;10.80;7.13;;;25.50;61.00;;;;;;5052330;28;20043;-64
2023/06/26 00:34:01;;;;;;;9.50;6.78;;;25.40;61.10;;;;;;5051249;28;20025;-64
2023/06/26 00:36:27;;;;;;;11.68;7.68;;;25.40;61.10;;;;;;5048943;28;20033;-64
2023/06/26 00:38:53;;;;;;;10.07;7.38;;;25.40;61.10;;;;;;5051536;28;20021;-64
2023/06/26 00:41:19;;;;;;;9.32;6.93;;;25.30;61.00;;;;;;5050847;28;20454;-64
2023/06/26 00:43:45;;;;;;;10.30;7.75;;;25.30;61.20;;;;;;5056257;28;20446;-64
2023/06/26 00:46:13;;;;;;;10.25;7.63;;;25.30;61.20;;;;;;5054144;28;20035;-64
2023/06/26 00:48:41;;;;;;;9.27;7.03;;;25.30;61.50;;;;;;5057612;28;20112;-64
2023/06/26 00:51:07;;;;;;;11.05;8.15;;;25.30;61.50;;;;;;5068357;28;20044;-64
2023/06/26 00:53:33;;;;;;;10.57;8.07;;;25.20;61.60;;;;;;5059767;28;20021;-64
2023/06/26 00:56:00;;;;;;;10.15;7.43;;;25.20;61.80;;;;;;5074949;28;20078;-64
2023/06/26 00:58:26;;;;;;;9.85;7.70;;;25.20;62.00;;;;;;5043230;28;20081;-64
2023/06/26 01:00:52;;;;;;;9.40;7.38;;;25.20;62.10;;;;;;5076442;28;20500;-64
2023/06/26 01:03:23;;;;;;;10.82;7.72;;;25.20;62.30;;;;;;5060061;28;20052;-64
2023/06/26 01:05:51;;;;;;;11.45;8.45;;;25.20;62.50;;;;;;5056517;28;20041;-64
2023/06/26 01:08:18;;;;;;;11.13;8.27;;;25.20;62.60;;;;;;5075730;28;20471;-64
2023/06/26 01:10:45;;;;;;;10.32;7.80;;;25.10;62.50;;;;;;5057600;28;20029;-64
2023/06/26 01:13:12;;;;;;;13.02;8.70;;;25.10;62.60;;;;;;5074143;28;20025;-64
2023/06/26 01:15:39;;;;;;;9.77;7.88;;;25.10;62.80;;;;;;5057607;28;20364;-64
2023/06/26 01:18:06;;;;;;;13.57;8.43;;;25.10;62.90;;;;;;5058215;28;20025;-64
2023/06/26 01:20:36;;;;;;;10.63;8.32;;;25.10;62.90;;;;;;5058074;28;20433;-64
2023/06/26 01:23:29;;;;;;;10.27;7.55;;;25.10;63.00;;;;;;5075343;28;20102;-64
2023/06/26 01:26:14;;;;;;;10.20;8.30;;;25.10;62.80;;;;;;5064086;28;20035;-64
2023/06/26 01:28:42;;;;;;;10.40;8.20;;;25.00;62.40;;;;;;5042480;28;20037;-64
2023/06/26 01:31:10;;;;;;;12.40;8.15;;;25.00;62.40;;;;;;5075963;28;20361;-64
2023/06/26 01:33:36;;;;;;;12.38;8.63;;;25.10;62.50;;;;;;5076037;28;20103;-64
2023/06/26 01:36:03;;;;;;;12.07;8.40;;;25.10;62.40;;;;;;5056229;28;20032;-64
2023/06/26 01:38:28;;;;;;;12.00;8.65;;;25.10;62.50;;;;;;5057712;28;20066;-64
2023/06/26 01:40:57;;;;;;;12.13;8.60;;;25.00;62.40;;;;;;5074657;28;20048;-64
2023/06/26 01:43:43;;;;;;;11.77;8.45;;;25.10;62.50;;;;;;5048055;28;20445;-64
2023/06/26 01:46:23;;;;;;;12.45;8.18;;;25.00;62.40;;;;;;5057768;28;20368;-64
2023/06/26 01:49:18;;;;;;;11.40;7.90;;;25.00;62.40;;;;;;5058231;28;20319;-64
2023/06/26 01:51:58;;;;;;;11.60;8.70;;;25.00;62.30;;;;;;5067752;28;20045;-64
2023/06/26 01:54:25;;;;;;;10.90;8.45;;;25.00;63.00;;;;;;5056624;28;20049;-64
2023/06/26 01:56:54;;;;;;;13.45;9.07;;;25.00;62.30;;;;;;5051316;28;20017;-64
2023/06/26 01:59:22;;;;;;;12.43;8.25;;;25.00;62.40;;;;;;5058563;28;20025;-64
2023/06/26 02:01:48;;;;;;;11.07;8.35;;;24.90;62.40;;;;;;5057588;28;20028;-64
2023/06/26 02:04:13;;;;;;;11.85;8.40;;;25.00;62.30;;;;;;5058385;28;20043;-64
2023/06/26 02:06:39;;;;;;;10.40;7.65;;;25.00;62.20;;;;;;5056937;28;20109;-64
2023/06/26 02:09:05;;;;;;;9.90;8.05;;;25.00;62.10;;;;;;5076802;28;20111;-64
2023/06/26 02:11:31;;;;;;;11.18;7.90;;;25.00;62.10;;;;;;5056607;28;20025;-64
2023/06/26 02:13:57;;;;;;;13.57;8.00;;;25.00;61.90;;;;;;5057769;28;20060;-64
2023/06/26 02:16:23;;;;;;;11.93;8.40;;;25.00;61.80;;;;;;5055927;28;20073;-64
2023/06/26 02:18:49;;;;;;;11.85;7.93;;;25.00;61.60;;;;;;5076092;28;20406;-64
2023/06/26 02:21:14;;;;;;;9.73;7.15;;;24.90;61.40;;;;;;5056689;28;20025;-64
2023/06/26 02:23:40;;;;;;;8.95;6.25;;;24.90;61.20;;;;;;5041027;28;20027;-64
2023/06/26 02:26:06;;;;;;;8.40;5.95;;;24.90;61.10;;;;;;5055002;28;20032;-64
2023/06/26 02:28:34;;;;;;;8.95;5.75;;;24.90;61.00;;;;;;5075864;28;20489;-64
2023/06/26 02:31:00;;;;;;;9.23;5.57;;;24.80;60.80;;;;;;5074367;28;20442;-64
2023/06/26 02:33:26;;;;;;;9.82;6.10;;;24.80;60.70;;;;;;5075550;28;20039;-64
2023/06/26 02:35:52;;;;;;;8.57;6.13;;;24.80;60.60;;;;;;5055095;28;20151;-64
2023/06/26 02:38:18;;;;;;;8.98;5.90;;;24.80;60.60;;;;;;5075182;28;20059;-64
2023/06/26 02:40:45;;;;;;;13.73;5.70;;;24.80;60.70;;;;;;5040994;28;20357;-64
2023/06/26 02:43:12;;;;;;;8.63;5.13;;;24.80;60.60;;;;;;5057866;28;20403;-64
2023/06/26 02:45:38;;;;;;;9.50;5.45;;;24.80;61.30;;;;;;5041399;28;20040;-64
2023/06/26 02:48:04;;;;;;;9.02;4.43;;;24.70;60.70;;;;;;5039647;28;20078;-64
2023/06/26 02:50:32;;;;;;;8.70;4.20;;;24.70;60.60;;;;;;5057438;28;20063;-64
2023/06/26 02:53:06;;;;;;;9.13;4.20;;;24.70;60.70;;;;;;5040799;28;20013;-64
2023/06/26 02:55:34;;;;;;;9.48;4.40;;;24.60;60.60;;;;;;5053239;28;20050;-64
2023/06/26 02:58:00;;;;;;;8.70;3.72;;;24.60;60.50;;;;;;5051459;28;20103;-64
2023/06/26 03:00:26;;;;;;;9.07;3.80;;;24.60;60.60;;;;;;5053258;28;20161;-64
2023/06/26 03:02:53;;;;;;;8.02;3.95;;;24.50;60.70;;;;;;5035538;28;20423;-64
2023/06/26 03:05:20;;;;;;;8.75;4.13;;;24.50;60.80;;;;;;5056420;28;20166;-64
2023/06/26 03:07:46;;;;;;;8.15;3.83;;;24.40;60.90;;;;;;5033610;28;20028;-64
2023/06/26 03:10:12;;;;;;;9.38;3.95;;;24.40;61.00;;;;;;5041414;28;20170;-64
2023/06/26 03:12:38;;;;;;;8.95;4.03;;;24.40;61.10;;;;;;5044476;28;20024;-64
2023/06/26 03:15:04;;;;;;;8.80;4.07;;;24.20;61.20;;;;;;5050135;28;20377;-64
2023/06/26 03:17:30;;;;;;;7.82;3.92;;;24.20;61.40;;;;;;5042282;28;20036;-64
2023/06/26 03:20:01;;;;;;;9.70;4.47;;;24.20;61.50;;;;;;5058104;28;20045;-64
2023/06/26 03:22:35;;;;;;;9.25;4.22;;;24.10;61.70;;;;;;5046113;28;20128;-64
2023/06/26 03:25:03;;;;;;;8.73;4.15;;;24.10;61.90;;;;;;5046999;28;20028;-64
2023/06/26 03:27:30;;;;;;;7.05;3.20;;;24.10;62.00;;;;;;5043503;28;20052;-64
2023/06/26 03:29:55;;;;;;;7.80;3.90;;;24.00;62.00;;;;;;5051345;28;20104;-64
2023/06/26 03:32:22;;;;;;;8.70;4.28;;;24.00;62.20;;;;;;5024229;28;20512;-64
2023/06/26 03:34:48;;;;;;;12.38;4.82;;;24.00;62.30;;;;;;5043356;28;20100;-64
2023/06/26 03:37:14;;;;;;;9.43;4.20;;;23.90;62.40;;;;;;5060800;28;20175;-64
2023/06/26 03:39:40;;;;;;;11.25;4.28;;;23.90;62.50;;;;;;5054407;28;20025;-63
2023/06/26 03:42:06;;;;;;;8.60;4.32;;;24.00;62.70;;;;;;5025763;28;20079;-64
2023/06/26 03:44:32;;;;;;;10.63;4.30;;;24.00;62.70;;;;;;5051769;28;20098;-64
2023/06/26 03:46:58;;;;;;;9.02;3.90;;;24.00;62.80;;;;;;5059571;28;20379;-64
2023/06/26 03:49:24;;;;;;;9.60;3.92;;;24.00;62.70;;;;;;5058660;28;20108;-64
2023/06/26 03:51:51;;;;;;;9.77;4.88;;;24.00;62.80;;;;;;5051842;28;20116;-64
2023/06/26 03:54:18;;;;;;;9.07;4.43;;;24.00;62.90;;;;;;5042456;28;20061;-64
2023/06/26 03:56:44;;;;;;;9.88;4.57;;;23.90;63.00;;;;;;5020675;28;20024;-64
2023/06/26 03:59:10;;;;;;;8.27;4.70;;;23.90;63.20;;;;;;5042487;28;20353;-64
2023/06/26 04:01:37;;;;;;;11.10;4.40;;;23.90;63.20;;;;;;5052536;28;20025;-64
2023/06/26 04:04:04;;;;;;;10.02;4.30;;;23.90;63.40;;;;;;5018664;28;20036;-64
2023/06/26 04:06:31;;;;;;;10.57;4.47;;;23.90;63.40;;;;;;5042272;28;20032;-64
2023/06/26 04:08:57;;;;;;;9.95;4.88;;;23.90;63.50;;;;;;5052693;28;20037;-64
2023/06/26 04:11:24;;;;;;;8.57;4.57;;;23.80;63.60;;;;;;5052951;28;20095;-63
2023/06/26 04:13:50;;;;;;;9.90;4.40;;;23.80;63.80;;;;;;5072995;28;20126;-64
2023/06/26 04:16:16;;;;;;;11.05;4.75;;;23.80;63.90;;;;;;5054973;28;20115;-64
2023/06/26 04:18:42;;;;;;;11.65;4.53;;;23.80;64.00;;;;;;5037429;28;20040;-64
2023/06/26 04:21:12;;;;;;;12.63;4.28;;;23.80;64.00;;;;;;5073880;28;20037;-64
2023/06/26 04:23:39;;;;;;;12.60;4.22;;;23.80;64.10;;;;;;5031158;28;20032;-64
2023/06/26 04:26:06;;;;;;;9.38;4.30;;;23.80;64.10;;;;;;5071982;28;20037;-64
2023/06/26 04:28:35;;;;;;;11.10;4.70;;;23.80;64.10;;;;;;5071233;28;20047;-64
2023/06/26 04:31:04;;;;;;;10.93;4.63;;;23.80;64.10;;;;;;5073773;28;20046;-64
2023/06/26 04:33:30;;;;;;;9.52;4.55;;;23.90;64.20;;;;;;5054168;28;20025;-64
2023/06/26 04:35:55;;;;;;;11.63;4.47;;;23.80;64.20;;;;;;5050716;28;20349;-64
2023/06/26 04:38:21;;;;;;;9.80;5.13;;;23.80;64.30;;;;;;5071351;28;20372;-64
2023/06/26 04:40:48;;;;;;;9.80;4.55;;;23.80;65.10;;;;;;5072758;28;20017;-63
2023/06/26 04:43:14;;;;;;;10.27;4.75;;;23.70;64.70;;;;;;5072419;28;20040;-63
2023/06/26 04:45:40;;;;;;;12.43;4.28;;;23.70;64.80;;;;;;5053881;28;20028;-63
2023/06/26 04:48:05;;;;;;;11.50;4.82;;;23.70;64.90;;;;;;5070559;28;20457;-63
2023/06/26 04:50:33;;;;;;;10.88;5.00;;;23.70;65.00;;;;;;5055340;28;20044;-63
2023/06/26 04:52:59;;;;;;;11.35;4.35;;;23.70;65.00;;;;;;5072458;28;20206;-63
2023/06/26 04:55:25;;;;;;;10.48;4.65;;;23.70;65.10;;;;;;5072613;28;20489;-63
2023/06/26 04:57:51;;;;;;;11.27;5.00;;;23.70;65.10;;;;;;5053027;28;20067;-63
2023/06/26 05:00:17;;;;;;;10.48;4.22;;;23.70;65.20;;;;;;5053848;28;20059;-63
2023/06/26 05:02:43;;;;;;;11.00;5.05;;;23.60;65.20;;;;;;5073452;28;20058;-63
2023/06/26 05:05:10;;;;;;;10.88;4.63;;;23.60;65.40;;;;;;5067928;28;20025;-63
2023/06/26 05:07:36;;;;;;;10.15;4.88;;;23.60;65.50;;;;;;5069626;28;20071;-63
2023/06/26 05:10:02;;;;;;;15.05;4.65;;;23.60;65.50;;;;;;5067710;28;20453;-63
2023/06/26 05:12:28;;;;;;;11.82;4.57;;;23.60;65.50;;;;;;5073585;28;20066;-63
2023/06/26 05:14:53;;;;;;;8.90;3.97;;;23.60;65.50;;;;;;5073783;28;20016;-63
2023/06/26 05:17:19;;;;;;;11.82;5.10;;;23.70;65.40;;;;;;5054785;28;20028;-63
2023/06/26 05:19:45;;;;;;;10.82;4.82;;;23.80;65.30;;;;;;5054921;28;20052;-63
2023/06/26 05:22:13;;;;;;;11.77;5.05;;;23.80;65.10;;;;;;5073510;28;20349;-63
2023/06/26 05:24:40;;;;;;;10.00;4.75;;;23.80;65.00;;;;;;5074079;28;20033;-63
2023/06/26 05:27:07;;;;;;;9.85;4.55;;;23.90;65.00;;;;;;5073727;28;20353;-63
2023/06/26 05:29:33;;;;;;;11.30;5.18;;;23.90;64.80;;;;;;5058344;28;20032;-63
2023/06/26 05:31:59;;;;;;;10.88;4.80;;;24.00;64.70;;;;;;5076425;28;20028;-63
2023/06/26 05:34:31;;;;;;;10.30;5.40;;;24.10;64.60;;;;;;5042104;28;20016;-63
2023/06/26 05:37:01;;;;;;;12.02;5.10;;;24.10;64.50;;;;;;5045914;28;20037;-63
2023/06/26 05:39:27;;;;;;;10.85;4.50;;;24.20;64.30;;;;;;5072358;28;20434;-63
2023/06/26 05:41:54;;;;;;;10.32;4.70;;;24.20;64.10;;;;;;5075081;28;20099;-63
2023/06/26 05:44:19;;;;;;;8.63;4.75;;;24.20;64.00;;;;;;5057364;28;20035;-63
2023/06/26 05:46:46;;;;;;;12.35;4.65;;;24.20;64.10;;;;;;5056805;28;20020;-63
2023/06/26 05:49:11;;;;;;;11.88;5.07;;;24.20;64.00;;;;;;5075400;28;20028;-63
2023/06/26 05:51:37;;;;;;;12.15;4.70;;;24.30;63.80;;;;;;5040275;28;20227;-63
2023/06/26 05:54:03;;;;;;;11.70;4.40;;;24.30;63.60;;;;;;5056489;28;20063;-63
2023/06/26 05:56:30;;;;;;;10.52;4.00;;;24.40;63.40;;;;;;5076089;28;20032;-63
2023/06/26 05:58:57;;;;;;;10.35;4.28;;;24.40;62.90;;;;;;5071707;28;20013;-63
2023/06/26 06:01:23;;;;;;;8.75;4.28;;;24.50;62.50;;;;;;5075026;28;20056;-63
2023/06/26 06:03:49;;;;;;;9.45;4.35;;;24.50;62.20;;;;;;5074146;28;20024;-63
2023/06/26 06:06:15;;;;;;;9.23;4.63;;;24.50;61.70;;;;;;5055726;28;20377;-63
2023/06/26 06:08:41;;;;;;;9.90;4.57;;;24.60;61.40;;;;;;5058166;28;20364;-63
2023/06/26 06:11:07;;;;;;;6.90;3.55;;;24.70;61.10;;;;;;5075013;28;20058;-63
2023/06/26 06:13:33;;;;;;;10.85;4.22;;;24.70;61.40;;;;;;5058233;28;20457;-63
2023/06/26 06:15:59;;;;;;;11.15;3.30;;;24.80;60.30;;;;;;5074113;28;20039;-63
2023/06/26 06:18:24;;;;;;;9.13;3.70;;;24.80;60.00;;;;;;5058262;28;20033;-63
2023/06/26 06:20:50;;;;;;;7.78;3.60;;;24.90;59.80;;;;;;5074747;28;20021;-63
2023/06/26 06:23:16;;;;;;;9.95;3.70;;;25.00;59.50;;;;;;5041138;28;20369;-63
2023/06/26 06:25:41;;;;;;;9.43;3.90;;;25.10;59.30;;;;;;5075462;28;20405;-63
2023/06/26 06:28:07;;;;;;;8.05;3.70;;;25.20;59.00;;;;;;5074348;28;20040;-63
2023/06/26 06:30:33;;;;;;;7.30;3.35;;;25.30;58.40;;;;;;5046831;28;20030;-63
2023/06/26 06:32:59;;;;;;;7.15;3.10;;;25.30;58.20;;;;;;5057161;28;20024;-63
2023/06/26 06:35:24;;;;;;;7.25;3.00;;;25.40;57.80;;;;;;5073872;28;20054;-63
2023/06/26 06:37:50;;;;;;;8.18;3.10;;;25.50;57.40;;;;;;5075197;28;20095;-62
2023/06/26 06:40:17;;;;;;;6.95;3.00;;;25.50;57.00;;;;;;5055268;28;20024;-62
2023/06/26 06:42:42;;;;;;;6.47;2.40;;;25.60;56.70;;;;;;5073447;28;20037;-62
2023/06/26 06:45:09;;;;;;;6.90;2.42;;;25.70;56.10;;;;;;5056432;28;20031;-63
2023/06/26 06:47:35;;;;;;;7.20;2.40;;;25.80;55.60;;;;;;5074593;28;20029;-63
2023/06/26 06:50:10;;;;;;;7.05;2.75;;;25.90;55.20;;;;;;5055245;28;20037;-63
2023/06/26 06:52:40;;;;;;;6.28;2.58;;;26.00;54.80;;;;;;5064545;28;20028;-63
2023/06/26 06:55:08;;;;;;;6.75;2.92;;;26.10;54.40;;;;;;5074132;28;20032;-63
2023/06/26 06:57:37;;;;;;;6.85;3.00;;;26.20;54.20;;;;;;5074789;28;20017;-63
2023/06/26 07:00:16;;;;;;;7.00;2.60;;;26.20;54.00;;;;;;5073872;28;20028;-63
2023/06/26 07:02:45;;;;;;;6.82;2.40;;;26.20;53.70;;;;;;5072442;28;20032;-63
2023/06/26 07:05:12;;;;;;;6.28;2.60;;;26.20;53.70;;;;;;5073101;28;20036;-63
2023/06/26 07:07:39;;;;;;;6.43;3.10;;;26.20;53.60;;;;;;5056874;28;20032;-63
2023/06/26 07:10:10;;;;;;;6.63;2.75;;;26.30;53.50;;;;;;5075465;28;20032;-63
2023/06/26 07:12:36;;;;;;;;;;;26.50;53.20;;;;;;5056864;28;20386;-63
2023/06/26 07:15:04;;;;;;;6.05;2.42;;;26.50;53.30;;;;;;5041074;28;20391;-63
2023/06/26 07:17:31;;;;;;;8.13;2.65;;;26.60;53.00;;;;;;5074932;28;20067;-63
2023/06/26 07:19:56;;;;;;;4.75;2.17;;;26.70;52.80;;;;;;5070560;28;20008;-63
2023/06/26 07:22:23;;;;;;;8.32;2.70;;;26.90;52.60;;;;;;5069990;28;20050;-63
2023/06/26 07:24:48;;;;;;;6.40;2.40;;;27.10;53.20;;;;;;5073974;28;20082;-63
2023/06/26 07:27:15;;;;;;;6.07;2.42;;;26.90;52.40;;;;;;5071143;28;20392;-63
2023/06/26 07:29:42;;;;;;;7.07;2.95;;;26.80;52.60;;;;;;5068373;28;20115;-64
2023/06/26 07:32:08;;;;;;;7.65;2.92;;;26.60;52.80;;;;;;5066640;28;20040;-63
2023/06/26 07:34:33;;;;;;;7.95;2.80;;;26.60;52.90;;;;;;5068178;28;20040;-63
2023/06/26 07:36:59;;;;;;;6.55;2.75;;;26.80;52.80;;;;;;5068957;28;20024;-63
2023/06/26 07:39:25;;;;;;;5.57;2.38;;;27.00;52.60;;;;;;5067937;28;20452;-62
2023/06/26 07:41:51;;;;;;;6.57;2.72;;;27.20;52.20;;;;;;5068185;28;21019;-62
2023/06/26 07:44:17;;;;;;;7.88;2.33;;;27.10;52.20;;;;;;5071220;28;20123;-65
2023/06/26 07:46:44;;;;;;;5.82;2.72;;;27.30;52.10;;;;;;5051469;28;20025;-62
2023/06/26 07:49:10;;;;;;;7.00;2.45;;;27.20;51.90;;;;;;5052084;28;20032;-63
2023/06/26 07:51:36;;;;;;;7.72;2.83;;;27.40;51.90;;;;;;5050495;28;20075;-63
2023/06/26 07:54:02;;;;;;;5.80;2.58;;;27.40;51.60;;;;;;5068966;28;20048;-63
2023/06/26 07:56:28;;;;;;;5.70;2.47;;;27.50;51.50;;;;;;5056714;28;20017;-63
2023/06/26 07:58:54;;;;;;;7.43;3.13;;;27.30;51.70;;;;;;5074451;28;20357;-63
2023/06/26 08:01:19;;;;;;;6.75;2.80;;;27.10;51.90;;;;;;5074525;28;20370;-63
2023/06/26 08:03:45;;;;;;;7.75;2.80;;;27.20;51.90;;;;;;5073664;28;20023;-63
2023/06/26 08:06:11;;;;;;;5.80;2.65;;;27.30;51.60;;;;;;5056299;28;20375;-63
2023/06/26 08:08:37;;;;;;;6.50;2.55;;;27.20;51.70;;;;;;5056904;28;20067;-63
2023/06/26 08:11:02;;;;;;;6.80;2.75;;;27.10;51.90;;;;;;5074269;28;20130;-63
2023/06/26 08:13:28;;;;;;;6.00;2.70;;;26.90;52.10;;;;;;5073644;28;20177;-63
2023/06/26 08:15:54;;;;;;;6.63;2.97;;;26.80;52.00;;;;;;5073780;28;20031;-63
2023/06/26 08:18:20;;;;;;;5.95;2.92;;;27.00;51.80;;;;;;5074329;28;20032;-63
2023/06/26 08:20:46;;;;;;;6.63;2.67;;;27.20;51.60;;;;;;5074189;28;20033;-63
2023/06/26 08:23:12;;;;;;;5.88;2.35;;;27.40;51.20;;;;;;5074098;28;20101;-63
2023/06/26 08:25:37;;;;;;;7.13;2.88;;;27.60;51.10;;;;;;5054798;28;20036;-63
2023/06/26 08:28:03;;;;;;;5.47;2.40;;;27.90;50.90;;;;;;5074544;28;20032;-64
2023/06/26 08:30:29;;;;;;;7.57;2.88;;;28.00;50.60;;;;;;5073983;28;20032;-64
2023/06/26 08:32:55;;;;;;;5.90;2.67;;;27.80;50.80;;;;;;5074315;28;20020;-64
2023/06/26 08:35:21;;;;;;;7.43;2.78;;;27.60;50.80;;;;;;5072514;28;20052;-64
2023/06/26 08:37:47;;;;;;;5.53;2.55;;;27.30;51.10;;;;;;5034468;28;20044;-64
2023/06/26 08:40:17;;;;;;;7.95;2.83;;;27.00;51.70;;;;;;5073418;28;20444;-64
2023/06/26 08:42:42;;;;;;;6.88;2.88;;;26.80;52.20;;;;;;5073781;28;20028;-64
2023/06/26 08:45:08;;;;;;;6.28;2.55;;;26.60;52.60;;;;;;5072204;28;20033;-64
2023/06/26 08:47:37;;;;;;;5.50;2.65;;;26.50;52.90;;;;;;5070318;28;20027;-64
2023/06/26 08:50:13;;;;;;;7.85;3.10;;;26.70;52.70;;;;;;5038816;28;20191;-64
2023/06/26 08:52:50;;;;;;;8.25;3.00;;;27.20;52.10;;;;;;5029926;28;20088;-65
2023/06/26 08:55:17;;;;;;;6.78;2.97;;;27.40;51.60;;;;;;5027844;28;20044;-64
2023/06/26 08:57:43;;;;;;;6.90;2.78;;;27.70;51.30;;;;;;5022910;28;20083;-64
2023/06/26 09:00:10;;;;;;;7.57;2.88;;;28.00;51.60;;;;;;5028861;28;20105;-65
2023/06/26 09:02:40;;;;;;;6.35;2.45;;;28.10;50.40;;;;;;5032459;28;20450;-64
2023/06/26 09:05:06;;;;;;;6.40;2.58;;;28.40;49.90;;;;;;5036681;28;20458;-64
2023/06/26 09:07:32;;;;;;;5.85;2.47;;;28.60;49.40;;;;;;5035662;28;20026;-64
2023/06/26 09:09:58;;;;;;;5.93;2.50;;;28.50;49.20;;;;;;5036734;28;20037;-64
2023/06/26 09:12:27;;;;;;;6.82;2.67;;;28.30;49.40;;;;;;5035444;28;20021;-64
2023/06/26 09:14:55;;;;;;;6.65;2.30;;;28.40;49.50;;;;;;5029448;28;20355;-64
2023/06/26 09:17:26;;;;;;;6.35;2.13;;;28.40;49.30;;;;;;5018311;28;20056;-64
2023/06/26 09:19:52;;;;;;;8.10;2.72;;;28.20;49.30;;;;;;5026845;28;20044;-64
2023/06/26 09:22:18;;;;;;;4.72;1.90;;;28.30;49.20;;;;;;5021405;28;20037;-64
2023/06/26 09:24:45;;;;;;;4.50;1.63;;;28.40;48.50;;;;;;5024960;28;20034;-65
2023/06/26 09:27:11;;;;;;;5.03;1.88;;;28.60;47.70;;;;;;5029051;28;20124;-64
2023/06/26 09:29:37;;;;;;;4.35;1.77;;;28.80;46.60;;;;;;5031439;28;20445;-64
2023/06/26 09:32:04;;;;;;;4.50;1.80;;;28.70;46.40;;;;;;5023899;28;20041;-64
2023/06/26 09:34:33;;;;;;;5.40;1.58;;;28.40;45.90;;;;;;5025634;28;20025;-64
2023/06/26 09:37:02;;;;;;;4.97;1.70;;;28.30;46.10;;;;;;5002415;28;20022;-64
2023/06/26 09:39:31;;;;;;;4.18;1.60;;;28.30;45.30;;;;;;5016868;28;20104;-64
2023/06/26 09:41:57;;;;;;;4.10;1.70;;;28.40;45.10;;;;;;5023108;28;20037;-64
2023/06/26 09:44:23;;;;;;;4.88;1.55;;;28.50;44.80;;;;;;5019996;28;20476;-64
2023/06/26 09:46:49;;;;;;;4.68;1.60;;;28.80;44.80;;;;;;5019491;28;20108;-64
2023/06/26 09:49:15;;;;;;;5.80;1.63;;;28.90;44.20;;;;;;5022102;28;20041;-64
2023/06/26 09:51:42;;;;;;;5.43;1.48;;;29.00;43.80;;;;;;5042120;28;20182;-64
2023/06/26 09:54:12;;;;;;;4.97;1.40;;;29.20;43.70;;;;;;5043947;28;20064;-64
2023/06/26 09:56:38;;;;;;;4.37;1.33;;;29.20;43.60;;;;;;5057656;28;20036;-64
2023/06/26 09:59:05;;;;;;;3.88;1.50;;;29.10;43.60;;;;;;5075393;28;20036;-64
2023/06/26 10:01:32;;;;;;;4.45;1.30;;;29.20;43.30;;;;;;5071012;28;20111;-64
2023/06/26 10:03:58;;;;;;;4.82;1.55;;;29.20;43.40;;;;;;5047035;28;20080;-64
2023/06/26 10:06:56;;;;;;;6.85;1.60;;;29.30;43.30;;;;;;5067100;28;20031;-65
2023/06/26 10:09:23;;;;;;;3.97;1.30;;;29.20;43.30;;;;;;5006155;28;20063;-64
2023/06/26 10:11:56;;;;;;;3.75;1.38;;;28.90;43.50;;;;;;5057092;28;20029;-64
2023/06/26 10:14:26;;;;;;;5.80;1.60;;;28.40;44.10;;;;;;5045726;28;20025;-65
2023/06/26 10:16:52;;;;;;;7.10;1.87;;;28.00;44.40;;;;;;5067464;28;20033;-65
2023/06/26 10:19:24;;;;;;;5.28;1.58;;;27.90;44.90;;;;;;5065179;28;20102;-65
2023/06/26 10:21:54;;;;;;;3.28;1.25;;;28.10;44.90;;;;;;5060841;28;20378;-65
2023/06/26 10:24:22;;;;;;;4.82;1.70;;;28.40;44.50;;;;;;5061276;28;20033;-64
2023/06/26 10:26:51;;;;;;;4.45;1.40;;;28.40;44.20;;;;;;5047551;28;20566;-64
2023/06/26 10:29:20;;;;;;;7.13;1.45;;;28.50;44.10;;;;;;5053309;28;20368;-64
2023/06/26 10:31:54;;;;;;;2.38;1.30;;;28.80;43.90;;;;;;5053809;28;20025;-64
2023/06/26 10:34:20;;;;;;;3.45;1.27;;;28.80;43.60;;;;;;5065477;28;20369;-64
2023/06/26 10:36:47;;;;;;;5.25;1.50;;;28.90;43.30;;;;;;5071307;28;20104;-65
2023/06/26 10:39:13;;;;;;;3.22;1.35;;;28.90;43.20;;;;;;5074597;28;20329;-64
2023/06/26 10:41:44;;;;;;;4.20;1.38;;;29.00;42.80;;;;;;5075663;28;20400;-65
2023/06/26 10:44:17;;;;;;;3.80;1.48;;;29.00;42.30;;;;;;5074746;28;20059;-65
2023/06/26 10:46:53;;;;;;;5.40;1.67;;;28.90;42.50;;;;;;5057706;28;20396;-65
2023/06/26 10:49:21;;;;;;;4.70;1.60;;;29.00;42.20;;;;;;5072302;28;20078;-65
2023/06/26 10:51:50;;;;;;;4.65;1.38;;;29.20;42.30;;;;;;5054166;28;20052;-64
2023/06/26 10:54:18;;;;;;;3.90;1.60;;;29.30;41.90;;;;;;5037324;28;20021;-64
2023/06/26 10:56:48;;;;;;;3.67;1.27;;;29.50;41.80;;;;;;5053362;28;20025;-65
2023/06/26 10:59:23;;;;;;;3.08;1.25;;;29.60;41.40;;;;;;5051430;28;20044;-64
2023/06/26 11:01:56;;;;;;;3.80;1.40;;;29.60;41.10;;;;;;5050495;28;20071;-64
2023/06/26 11:04:46;;;;;;;3.40;1.13;;;29.50;40.80;;;;;;5074406;28;20024;-64
2023/06/26 11:07:24;;;;;;;4.15;1.48;;;29.40;40.90;;;;;;5052398;28;20102;-64
2023/06/26 11:10:02;;;;;;;4.00;1.42;;;29.30;41.20;;;;;;5068500;28;20044;-64
2023/06/26 11:12:43;;;;;;;3.03;1.40;;;29.30;40.70;;;;;;5054104;28;20029;-64
2023/06/26 11:15:15;;;;;;;4.80;1.85;;;29.30;40.30;;;;;;5037430;28;20044;-64
2023/06/26 11:17:44;;;;;;;4.30;1.60;;;29.00;40.10;;;;;;5054015;28;20025;-64
2023/06/26 11:20:15;;;;;;;4.70;1.65;;;28.80;40.20;;;;;;5053918;28;20112;-64
2023/06/26 11:22:42;;;;;;;3.83;1.55;;;28.80;41.00;;;;;;5054715;28;20029;-64
2023/06/26 11:25:09;;;;;;;3.05;1.20;;;28.80;40.40;;;;;;5054437;28;20458;-64
2023/06/26 11:27:41;;;;;;;4.68;1.40;;;28.80;39.90;;;;;;5036145;28;20059;-64
2023/06/26 11:30:10;;;;;;;2.97;1.30;;;28.70;39.70;;;;;;5049216;28;20372;-64
2023/06/26 11:32:39;;;;;;;3.53;1.48;;;28.70;39.90;;;;;;5054602;28;20033;-64
2023/06/26 11:35:05;;;;;;;3.65;1.10;;;28.70;40.10;;;;;;5053474;28;20364;-65
2023/06/26 11:37:32;;;;;;;4.05;1.65;;;28.60;40.10;;;;;;5053525;28;20062;-65
2023/06/26 11:39:57;;;;;;;3.42;1.20;;;28.30;40.00;;;;;;5052397;28;20048;-64
2023/06/26 11:42:25;;;;;;;3.40;1.35;;;28.10;39.70;;;;;;5035463;28;20025;-64
2023/06/26 11:44:51;;;;;;;3.30;1.20;;;27.90;39.80;;;;;;5052297;28;20060;-64
2023/06/26 11:47:18;;;;;;;3.22;1.50;;;27.90;40.20;;;;;;5052965;28;20032;-64
2023/06/26 11:49:45;;;;;;;3.50;1.45;;;28.10;40.30;;;;;;5052516;28;20035;-64
2023/06/26 11:52:12;;;;;;;3.55;1.30;;;28.10;40.40;;;;;;5050391;28;20424;-64
2023/06/26 11:54:38;;;;;;;4.03;1.38;;;28.00;40.40;;;;;;5051150;28;20050;-64
2023/06/26 11:57:05;;;;;;;2.63;1.20;;;28.00;40.40;;;;;;5052302;28;20468;-64
2023/06/26 11:59:36;;;;;;;4.50;1.55;;;28.00;40.40;;;;;;5051890;28;20091;-65
2023/06/26 12:02:06;;;;;;;3.92;1.20;;;28.20;40.50;;;;;;5036469;28;20021;-65
2023/06/26 12:04:35;;;;;;;3.53;1.23;;;28.10;40.50;;;;;;5053133;28;20076;-65
2023/06/26 12:07:03;;;;;;;4.18;1.65;;;28.00;40.80;;;;;;5054374;28;20028;-65
2023/06/26 12:09:30;;;;;;;2.97;1.35;;;27.80;40.80;;;;;;5053491;28;20117;-65
2023/06/26 12:11:57;;;;;;;2.95;1.25;;;27.80;40.60;;;;;;5053448;28;20037;-65
2023/06/26 12:14:25;;;;;;;3.70;1.42;;;27.80;40.40;;;;;;5054339;28;20052;-65
2023/06/26 12:16:53;;;;;;;4.60;1.77;;;27.80;40.50;;;;;;5054317;28;20021;-65
2023/06/26 12:19:25;;;;;;;2.75;1.20;;;28.00;40.60;;;;;;5054176;28;20029;-65
2023/06/26 12:21:52;;;;;;;3.70;1.45;;;28.10;40.70;;;;;;5048620;28;20040;-64
2023/06/26 12:24:20;;;;;;;4.57;1.35;;;28.20;40.60;;;;;;5053286;28;20037;-65
2023/06/26 12:26:53;;;;;;;3.47;1.42;;;28.00;40.30;;;;;;5054226;28;20033;-65
2023/06/26 12:29:20;;;;;;;3.92;1.45;;;27.80;40.40;;;;;;5054492;28;20064;-65
2023/06/26 12:31:51;;;;;;;4.38;1.30;;;27.70;40.20;;;;;;5051132;28;20027;-65
2023/06/26 12:34:20;;;;;;;2.78;1.30;;;27.60;40.40;;;;;;5035474;28;20108;-65
2023/06/26 12:36:48;;;;;;;5.40;1.50;;;27.50;40.40;;;;;;5051092;28;20018;-65
2023/06/26 12:39:17;;;;;;;5.35;1.38;;;27.30;40.30;;;;;;5051150;28;20431;-64
2023/06/26 12:41:51;;;;;;;2.10;1.23;;;27.20;40.40;;;;;;5045107;28;20036;-64
2023/06/26 12:44:22;;;;;;;4.20;1.33;;;27.30;40.20;;;;;;5051110;28;20468;-62
2023/06/26 12:46:49;;;;;;;4.25;1.33;;;27.30;39.90;;;;;;5053585;28;20484;-64
2023/06/26 12:49:16;;;;;;;4.25;1.23;;;27.30;40.20;;;;;;5052175;28;20029;-64